チュニス の空港の天気 - METARとTAF

チュニス・カルタゴ国際空港 ( DTTA / TUN ) - チュニジア チュニス
飛行場実況気象(Metar)
観測時間11/30 17:00 CET (11/30 16:00 UTC)
風向・風速西北西 5m/s
視程10km以上
天気現象
全天の4割程度の雲 雲底高度 790m
全天の4割程度の雲 雲底高度 1100m
気温15℃
湿度63%
気圧1011hPa
METARDTTA 301600Z 30009KT 9999 SCT026 SCT036 15/08 Q1011
過去の天気等 Google飛行場航空写真 Wunderground天気予報

過去48時間のMETAR

飛行場予報(TAF)
発表時間: 11/30 12:00 CET (11/30 11:00 UTC)
予報対象時間: 30日13時 CET ~ 1日13時 CET
風向・風速西北西 6m/s
視程10km以上
全天の4割程度の雲 雲底高度 610m
30日13時 CET ~ 30日20時 CET に 確率 40% で一時的に
天気現象
少しの塔状積雲 雲底高度 790m
30日17時 CET ~ 30日19時 CET に徐々に
風向・風速西 5m/s
TAF DTTA 301100Z 3012/0112 30012KT 9999 SCT020
PROB40 TEMPO 3012/3019 RA FEW026TCU
BECMG 3016/3018 26010KT